Latest Weather Observations for Coondewanna

IDW60801

Issued at 2:33 pm WST Saturday 10 December 2022 (issued every 10 minutes, with the page automatically refreshed every 10 minutes)

About weather observations | Map of weather stations | Latest weather observations for WA | Other Formats
Station Details ID: 505051 Name: COONDEWANNA Lat: -22.96 Lon: 118.81 Height: 697.63 m
Data from the previous 72 hours. | See also: Recent months for locations in Western Australia
Date/Time
WST
Temp
°C
App
Temp
°C
Dew
Point
°C
Rel
Hum
%
Delta-T
°C
Wind Press
QNH
hPa
Press
MSL
hPa
Rain since
9am
mm
Dir  Spd
km/h
Gust
km/h
Spd
kts
Gust
kts
10/02:30pm 38.2 33.9 1.3 10 19.6 NW 13 24 7 13 1012.7 1006.4 0.0
10/02:00pm 37.6 32.5 0.8 10 19.3 WNW 17 39 9 21 1013.0 1006.7 0.0
10/01:30pm 37.0 31.5 1.7 11 18.7 W 20 35 11 19 1013.4 1007.2 0.0
10/01:00pm 37.0 31.5 1.7 11 18.7 WNW 20 35 11 19 1013.8 1007.5 0.0
10/12:30pm 37.5 31.7 2.1 11 18.9 WNW 22 39 12 21 1014.1 1007.8 0.0
10/12:00pm 36.2 30.8 2.3 12 18.0 SW 20 41 11 22 1013.2 1007.0 0.0
10/11:30am 34.6 30.1 2.2 13 17.1 W 15 26 8 14 1014.8 1008.6 0.0
10/11:00am 35.7 29.8 1.9 12 17.8 WNW 22 35 12 19 1014.9 1008.7 0.0
10/10:30am 34.6 29.2 2.2 13 17.1 WNW 20 33 11 18 1015.2 1008.9 0.0
10/10:00am 33.6 28.9 3.4 15 16.1 W 17 30 9 16 1015.5 1009.2 0.0
10/09:30am 32.6 27.7 5.2 18 15.0 W 20 32 11 17 1015.6 1009.3 0.0
10/09:00am 31.4 26.7 5.0 19 14.3 WSW 19 26 10 14 1015.7 1009.4 0.0
10/08:30am 31.5 27.7 5.8 20 14.1 WSW 15 26 8 14 1015.5 1009.2 0.0
10/08:00am 29.8 26.9 6.5 23 12.8 WSW 11 17 6 9 1015.5 1009.2 0.0
10/07:30am 29.3 26.1 6.7 24 12.4 SSW 13 19 7 10 1015.2 1008.9 0.0
10/07:00am 28.1 24.5 6.8 26 11.7 SW 15 20 8 11 1014.8 1008.6 0.0
10/06:30am 27.0 23.7 6.4 27 11.1 WSW 13 17 7 9 1014.7 1008.5 0.0
10/06:00am 24.5 22.6 6.7 32 9.5 WSW 6 9 3 5 1014.5 1008.3 0.0
10/05:30am 23.0 20.7 5.9 33 9.0 WSW 7 9 4 5 1014.1 1007.8 0.0
10/05:00am 23.3 20.7 6.1 33 9.1 WSW 9 13 5 7 1014.0 1007.7 0.0
10/04:30am 24.1 21.2 6.4 32 9.4 WSW 11 13 6 7 1013.7 1007.4 0.0
10/04:00am 24.3 21.7 6.1 31 9.7 WSW 9 9 5 5 1013.4 1007.2 0.0
10/03:30am 24.2 22.0 6.0 31 9.6 SW 7 11 4 6 1013.2 1007.0 0.0
10/03:00am 24.8 22.6 6.1 30 9.9 SW 7 9 4 5 1013.0 1006.7 0.0
10/02:30am 26.0 23.9 6.6 29 10.5 SW 7 9 4 5 1013.0 1006.7 0.0
10/02:00am 26.4 24.2 6.4 28 10.8 SW 7 9 4 5 1012.8 1006.5 0.0
10/01:30am 25.9 23.8 6.5 29 10.5 SW 7 9 4 5 1013.0 1006.7 0.0
10/01:00am 27.1 24.6 6.5 27 11.2 WSW 9 13 5 7 1013.2 1007.0 0.0
10/12:30am 27.6 25.2 6.9 27 11.3 W 9 15 5 8 1013.3 1007.1 0.0
10/12:00am 28.0 25.1 6.7 26 11.7 W 11 15 6 8 1013.4 1007.2 0.0
 
Date/Time
WST
Temp
°C
App
Temp
°C
Dew
Point
°C
Rel
Hum
%
Delta-T
°C
Wind Press
QNH
hPa
Press
MSL
hPa
Rain since
9am
mm
Dir  Spd
km/h
Gust
km/h
Spd
kts
Gust
kts
09/11:30pm 28.8 25.1 6.2 24 12.3 WSW 15 19 8 10 1013.5 1007.3 0.0
09/11:00pm 29.1 25.4 6.5 24 12.4 W 15 19 8 10 1013.8 1007.5 0.0
09/10:30pm 30.1 25.5 6.7 23 12.9 WSW 20 26 11 14 1013.9 1007.6 0.0
09/10:00pm 30.9 26.2 6.0 21 13.7 WSW 20 32 11 17 1013.7 1007.4 0.0
09/09:30pm 31.3 27.3 4.9 19 14.3 WSW 15 22 8 12 1013.4 1007.2 0.0
09/09:00pm 31.2 27.5 2.4 16 14.9 WNW 11 15 6 8 1012.9 1006.6 0.0
09/08:30pm 32.3 28.2 2.4 15 15.6 NW 13 17 7 9 1012.5 1006.2 0.0
09/08:00pm 33.0 28.9 2.0 14 16.1 NW 13 20 7 11 1012.2 1005.9 0.0
09/07:30pm 33.5 29.6 1.3 13 16.6 NW 11 15 6 8 1011.7 1005.4 0.0
09/07:00pm 34.7 29.7 1.1 12 17.4 NW 17 26 9 14 1011.3 1005.0 0.0
09/06:30pm 35.5 29.8 0.6 11 18.0 NW 20 30 11 16 1010.9 1004.6 0.0
09/06:00pm 36.6 31.0 0.1 10 18.8 NW 19 30 10 16 1010.4 1004.2 0.0
09/05:30pm 37.2 30.9 -0.9 9 19.4 NW 22 32 12 17 1010.2 1003.9 0.0
09/05:00pm 38.1 32.3 -0.3 9 19.9 NW 20 35 11 19 1010.0 1003.7 0.0
09/04:30pm 38.4 31.6 -1.6 8 20.3 NW 24 35 13 19 1009.8 1003.5 0.0
09/04:00pm 38.4 31.5 0.0 9 20.0 NW 26 35 14 19 1009.7 1003.4 0.0
09/03:30pm 39.4 32.7 -0.9 8 20.8 NW 24 44 13 24 1009.9 1003.6 0.0
09/03:00pm 39.2 32.9 -1.1 8 20.7 NNW 22 39 12 21 1010.0 1003.7 0.0
09/02:54pm 38.3 30.4 -1.7 8 20.2 NNW 30 48 16 26 1010.1 1003.8 0.0
09/02:30pm 38.1 29.8 -1.9 8 20.2 NNW 32 50 17 27 1010.2 1003.9 0.0
09/02:00pm 38.7 30.8 -1.4 8 20.5 NNW 30 48 16 26 1010.3 1004.0 0.0
09/01:49pm 37.9 29.6 -2.0 8 20.1 NNW 32 50 17 27 1010.4 1004.2 0.0
09/01:40pm 38.4 30.5 -1.6 8 20.3 NNW 30 50 16 27 1010.7 1004.4 0.0
09/01:30pm 38.5 31.2 0.0 9 20.0 N 28 41 15 22 1010.4 1004.2 0.0
09/01:14pm 38.1 30.8 -0.3 9 19.8 NNW 28 59 15 32 1010.8 1004.5 0.0
09/01:00pm 38.3 32.7 1.3 10 19.6 NW 20 37 11 20 1010.8 1004.5 0.0
09/12:34pm 37.8 30.6 1.0 10 19.4 NNW 28 57 15 31 1011.0 1004.7 0.0
09/12:30pm 39.3 32.8 0.6 9 20.4 NNW 24 43 13 23 1010.9 1004.6 0.0
09/12:00pm 37.2 31.9 1.8 11 18.8 NNW 19 33 10 18 1011.5 1005.2 0.0
09/11:30am 37.5 31.7 2.1 11 18.9 NNW 22 39 12 21 1012.1 1005.8 0.0
09/11:00am 36.5 31.1 2.5 12 18.2 NNW 20 46 11 25 1012.7 1006.4 0.0
09/10:30am 35.3 30.7 3.8 14 17.1 WNW 17 28 9 15 1012.9 1006.6 0.0
09/10:00am 34.8 30.3 4.4 15 16.6 NW 17 30 9 16 1013.0 1006.7 0.0
09/09:30am 33.7 30.0 4.4 16 15.9 WNW 13 24 7 13 1013.1 1006.9 0.0
09/09:00am 32.4 27.5 5.1 18 14.9 WSW 20 30 11 16 1013.1 1006.9 0.0
09/08:30am 32.1 27.9 5.6 19 14.5 WSW 17 24 9 13 1012.9 1006.6 0.0
09/08:00am 30.1 26.7 6.1 22 13.1 SW 13 20 7 11 1013.0 1006.7 0.0
09/07:30am 29.2 27.2 7.2 25 12.2 SSW 7 15 4 8 1013.1 1006.9 0.0
09/07:00am 28.2 25.8 6.9 26 11.7 SW 9 15 5 8 1013.0 1006.7 0.0
09/06:30am 26.0 25.0 5.6 27 10.8 CALM 0 0 0 0 1012.8 1006.5 0.0
09/06:00am 23.0 22.0 5.4 32 9.1 CALM 0 0 0 0 1012.5 1006.2 0.0
09/05:30am 21.3 19.2 4.0 32 8.7 WSW 4 7 2 4 1012.2 1005.9 0.0
09/05:00am 22.4 20.4 4.5 31 9.1 WSW 4 7 2 4 1011.9 1005.7 0.0
09/04:30am 22.1 20.8 4.2 31 9.0 CALM 0 0 0 0 1011.7 1005.4 0.0
09/04:00am 21.9 20.7 4.5 32 8.8 CALM 0 0 0 0 1011.5 1005.2 0.0
09/03:30am 23.2 20.6 4.2 29 9.7 WSW 7 9 4 5 1011.3 1005.0 0.0
09/03:00am 24.3 21.3 4.1 27 10.3 WSW 9 11 5 6 1011.1 1004.8 0.0
09/02:30am 25.6 22.7 4.7 26 10.9 WSW 9 11 5 6 1011.1 1004.8 0.0
09/02:00am 26.7 23.4 4.5 24 11.6 WSW 11 15 6 8 1011.2 1004.9 0.0
09/01:30am 27.5 23.4 4.5 23 12.1 WSW 15 22 8 12 1011.1 1004.8 0.0
09/01:00am 27.8 24.2 4.8 23 12.2 W 13 19 7 10 1011.3 1005.0 0.0
09/12:30am 27.7 24.4 4.7 23 12.1 W 11 15 6 8 1011.5 1005.2 0.0
09/12:00am 27.4 24.5 4.5 23 12.0 W 9 13 5 7 1011.8 1005.6 0.0
 
Date/Time
WST
Temp
°C
App
Temp
°C
Dew
Point
°C
Rel
Hum
%
Delta-T
°C
Wind Press
QNH
hPa
Press
MSL
hPa
Rain since
9am
mm
Dir  Spd
km/h
Gust
km/h
Spd
kts
Gust
kts
08/11:30pm 27.6 24.7 4.6 23 12.1 W 9 11 5 6 1012.1 1005.8 0.0
08/11:00pm 28.7 25.3 4.2 21 12.9 W 11 13 6 7 1012.2 1005.9 0.0
08/10:30pm 29.7 25.6 4.4 20 13.4 W 15 22 8 12 1012.4 1006.1 0.0
08/10:00pm 30.2 25.7 4.0 19 13.9 WSW 17 24 9 13 1012.4 1006.1 0.0
08/09:30pm 29.9 26.5 3.8 19 13.7 W 11 13 6 7 1012.3 1006.0 0.0
08/09:00pm 30.5 27.4 3.5 18 14.2 W 9 15 5 8 1011.8 1005.6 0.0
08/08:30pm 31.8 27.6 3.8 17 14.9 WSW 15 20 8 11 1011.4 1005.1 0.0
08/08:00pm 32.6 27.4 3.5 16 15.5 WSW 20 26 11 14 1011.1 1004.8 0.0
08/07:30pm 33.4 27.8 3.3 15 16.0 WSW 22 32 12 17 1010.6 1004.3 0.0
08/07:00pm 34.3 29.6 3.0 14 16.7 W 17 30 9 16 1010.0 1003.7 0.0
08/06:30pm 35.5 30.0 1.8 12 17.7 WNW 20 32 11 17 1009.6 1003.3 0.0
08/06:00pm 36.9 31.6 1.6 11 18.7 NW 19 28 10 15 1009.1 1002.7 0.0
08/05:30pm 37.5 32.8 0.7 10 19.2 NW 15 24 8 13 1008.7 1002.4 0.0
08/05:00pm 38.0 32.4 1.1 10 19.5 NW 20 30 11 16 1008.5 1002.2 0.0
08/04:30pm 38.1 32.7 1.2 10 19.5 W 19 32 10 17 1008.4 1002.1 0.0
08/04:00pm 38.3 32.0 1.3 10 19.7 NNW 24 41 13 22 1008.4 1002.1 0.0
08/03:30pm 39.0 33.1 1.9 10 19.9 WNW 22 39 12 21 1008.6 1002.3 0.0
08/03:00pm 39.1 32.9 1.9 10 20.0 NNW 24 41 13 22 1008.8 1002.5 0.0
08/02:30pm 38.1 32.1 1.2 10 19.5 N 22 35 12 19 1008.9 1002.6 0.0
08/02:00pm 37.7 32.5 3.4 12 18.7 WNW 20 33 11 18 1009.4 1003.1 0.0
08/01:30pm 37.3 32.0 3.1 12 18.5 W 20 39 11 21 1009.9 1003.6 0.0
08/01:00pm 36.6 31.3 4.8 14 17.6 W 22 41 12 22 1010.4 1004.2 0.0
08/12:37pm 36.4 30.8 3.6 13 17.8 NNW 22 44 12 24 1010.8 1004.5 0.0
08/12:30pm 36.2 31.4 4.5 14 17.4 WNW 19 33 10 18 1010.9 1004.6 0.0
08/12:00pm 35.3 30.3 4.8 15 16.8 W 20 33 11 18 1011.3 1005.0 0.0
08/11:30am 35.1 29.3 4.6 15 16.7 WNW 24 41 13 22 1011.7 1005.4 0.0
08/11:00am 35.7 29.8 4.1 14 17.3 W 24 35 13 19 1012.1 1005.8 0.0
08/10:30am 34.5 30.7 5.9 17 16.0 NW 15 32 8 17 1012.3 1006.0 0.0
08/10:00am 32.2 28.7 7.1 21 14.1 WSW 15 24 8 13 1012.6 1006.3 0.0
08/09:30am 31.4 27.7 7.8 23 13.4 WSW 17 26 9 14 1012.8 1006.5 0.0
08/09:00am 30.4 27.3 8.7 26 12.4 SW 15 22 8 12 1012.9 1006.6 0.0
08/08:30am 29.6 26.3 9.7 29 11.5 WSW 17 26 9 14 1012.8 1006.5 0.0
08/08:00am 28.4 24.9 10.1 32 10.6 SW 19 28 10 15 1012.8 1006.5 0.0
08/07:30am 27.3 23.8 10.1 34 9.9 SW 19 28 10 15 1012.8 1006.5 0.0
08/07:00am 26.6 22.9 10.3 36 9.4 WSW 20 26 11 14 1012.7 1006.4 0.0
08/06:30am 25.9 22.7 10.1 37 9.1 SW 17 24 9 13 1012.4 1006.1 0.0
08/06:00am 25.1 22.4 9.0 36 9.0 WSW 13 19 7 10 1011.9 1005.7 0.0
08/05:30am 24.9 21.2 8.0 34 9.3 WSW 17 20 9 11 1011.6 1005.3 0.0
08/05:00am 25.1 21.3 7.7 33 9.5 WSW 17 20 9 11 1011.1 1004.8 0.0
08/04:30am 23.5 20.6 6.7 34 9.0 WSW 11 15 6 8 1010.7 1004.4 0.0
08/04:00am 24.2 23.4 6.5 32 9.5 CALM 0 0 0 0 1010.3 1004.0 0.0
08/03:30am 25.2 23.6 6.4 30 10.1 W 4 7 2 4 1010.1 1003.8 0.0
08/03:00am 25.8 22.9 6.4 29 10.4 W 11 13 6 7 1010.0 1003.7 0.0
08/02:30am 26.9 23.6 6.3 27 11.1 W 13 15 7 8 1010.0 1003.7 0.0
08/02:00am 27.0 24.4 5.9 26 11.3 W 9 13 5 7 1010.0 1003.7 0.0
08/01:30am 27.8 24.8 6.0 25 11.8 W 11 15 6 8 1009.9 1003.6 0.0
08/01:00am 28.5 24.2 5.4 23 12.4 W 17 24 9 13 1010.0 1003.7 0.0
08/12:30am 29.2 24.4 4.6 21 13.1 WSW 19 26 10 14 1010.0 1003.7 0.0
08/12:00am 29.8 24.0 4.4 20 13.5 W 24 35 13 19 1010.2 1003.9 0.0
 
Date/Time
WST
Temp
°C
App
Temp
°C
Dew
Point
°C
Rel
Hum
%
Delta-T
°C
Wind Press
QNH
hPa
Press
MSL
hPa
Rain since
9am
mm
Dir  Spd
km/h
Gust
km/h
Spd
kts
Gust
kts
07/11:30pm 30.0 25.1 3.9 19 13.8 W 19 26 10 14 1010.2 1003.9 0.0
07/11:00pm 30.5 25.6 4.3 19 14.0 WSW 19 26 10 14 1010.1 1003.8 0.0
07/10:30pm 31.3 24.3 4.2 18 14.5 WSW 30 44 16 24 1009.9 1003.6 0.0
07/10:00pm 32.0 24.4 3.1 16 15.2 W 32 48 17 26 1009.7 1003.4 0.0
07/09:36pm 32.4 25.3 3.4 16 15.4 W 30 50 16 27 1009.5 1003.2 0.0
07/09:30pm 32.6 25.3 2.6 15 15.7 W 30 43 16 23 1009.6 1003.3 0.0
07/09:18pm 32.7 25.4 2.7 15 15.8 W 30 48 16 26 1009.5 1003.2 0.0
07/09:00pm 33.2 26.4 3.1 15 16.0 W 28 43 15 23 1009.3 1003.0 0.0
07/08:30pm 33.9 27.0 2.7 14 16.5 WSW 28 41 15 22 1008.7 1002.4 0.0
07/08:19pm 34.2 26.6 2.9 14 16.6 W 32 50 17 27 1008.5 1002.2 0.0
07/08:00pm 34.9 26.6 2.4 13 17.2 WSW 35 48 19 26 1008.3 1002.0 0.0
07/07:51pm 35.1 29.9 2.6 13 17.3 WNW 19 43 10 23 1008.0 1001.7 0.0
07/07:30pm 35.3 31.3 0.4 11 17.9 WNW 11 13 6 7 1007.4 1001.1 0.0
07/07:00pm 36.7 32.1 1.5 11 18.6 NW 15 22 8 12 1007.2 1000.9 0.0
07/06:30pm 37.4 33.1 0.7 10 19.2 NW 13 19 7 10 1006.8 1000.5 0.0
07/06:00pm 38.5 32.9 1.5 10 19.7 NW 20 30 11 16 1006.6 1000.3 0.0
07/05:30pm 39.6 34.7 2.3 10 20.2 N 17 24 9 13 1006.2 999.8 0.0
07/05:00pm 40.3 37.4 1.4 9 20.9 NNW 6 13 3 7 1006.2 999.8 0.0
07/04:30pm 40.3 35.3 1.4 9 20.9 NW 17 28 9 15 1006.3 999.9 0.0
07/04:00pm 38.6 33.6 1.6 10 19.8 NW 17 24 9 13 1006.4 1000.0 0.0
07/03:30pm 38.7 34.9 1.6 10 19.8 NW 11 17 6 9 1006.6 1000.3 0.0
07/03:00pm 39.1 35.3 1.9 10 20.0 N 11 20 6 11 1006.9 1000.6 0.0

Other formats

Comma delimited format used in spreadsheet applications
http://www.bom.gov.au/fwo/IDW60801/IDW60801.99312.axf

JavaScript Object Notation format (JSON) in row-major order
http://www.bom.gov.au/fwo/IDW60801/IDW60801.99312.json

Data quality

Most of these data are generated automatically and are frequently updated. Quality checks on data are not normally performed. It is possible for incorrect values to appear. Refer to information at About Latest Weather Observations and please check the disclaimer before using these data.